sensor_id;sensor_type;location;lat;lon;timestamp;P1;durP1;ratioP1;P2;durP2;ratioP2
66741;SDS011;53654;54.152;19.432;2024-01-15T00:00:35;4.10;;;2.70;;
66741;SDS011;53654;54.152;19.432;2024-01-15T00:03:23;4.30;;;2.80;;
66741;SDS011;53654;54.152;19.432;2024-01-15T00:05:52;3.20;;;2.60;;
66741;SDS011;53654;54.152;19.432;2024-01-15T00:08:20;3.30;;;2.60;;
66741;SDS011;53654;54.152;19.432;2024-01-15T00:10:48;4.00;;;2.80;;
66741;SDS011;53654;54.152;19.432;2024-01-15T00:13:16;4.60;;;3.10;;
66741;SDS011;53654;54.152;19.432;2024-01-15T00:15:44;4.20;;;3.00;;
66741;SDS011;53654;54.152;19.432;2024-01-15T00:18:13;3.40;;;2.80;;
66741;SDS011;53654;54.152;19.432;2024-01-15T00:20:41;3.60;;;2.60;;
66741;SDS011;53654;54.152;19.432;2024-01-15T00:23:09;4.00;;;3.00;;
66741;SDS011;53654;54.152;19.432;2024-01-15T00:25:37;3.70;;;2.80;;
66741;SDS011;53654;54.152;19.432;2024-01-15T00:28:05;2.90;;;2.70;;
66741;SDS011;53654;54.152;19.432;2024-01-15T00:30:33;3.40;;;2.80;;
66741;SDS011;53654;54.152;19.432;2024-01-15T00:33:01;4.90;;;3.10;;
66741;SDS011;53654;54.152;19.432;2024-01-15T00:35:30;3.30;;;2.90;;
66741;SDS011;53654;54.152;19.432;2024-01-15T00:37:58;4.00;;;2.80;;
66741;SDS011;53654;54.152;19.432;2024-01-15T00:40:26;4.00;;;3.00;;
66741;SDS011;53654;54.152;19.432;2024-01-15T00:42:55;3.60;;;3.00;;
66741;SDS011;53654;54.152;19.432;2024-01-15T00:45:23;3.00;;;2.70;;
66741;SDS011;53654;54.152;19.432;2024-01-15T00:47:51;3.40;;;3.00;;
66741;SDS011;53654;54.152;19.432;2024-01-15T00:50:20;3.10;;;2.80;;
66741;SDS011;53654;54.152;19.432;2024-01-15T00:52:48;4.10;;;2.90;;
66741;SDS011;53654;54.152;19.432;2024-01-15T00:55:16;4.80;;;2.90;;
66741;SDS011;53654;54.152;19.432;2024-01-15T00:57:44;4.50;;;2.80;;
66741;SDS011;53654;54.152;19.432;2024-01-15T01:00:13;3.90;;;3.10;;
66741;SDS011;53654;54.152;19.432;2024-01-15T01:02:41;4.40;;;2.80;;
66741;SDS011;53654;54.152;19.432;2024-01-15T01:05:10;3.20;;;2.90;;
66741;SDS011;53654;54.152;19.432;2024-01-15T01:07:38;4.00;;;3.20;;
66741;SDS011;53654;54.152;19.432;2024-01-15T01:10:06;3.40;;;2.80;;
66741;SDS011;53654;54.152;19.432;2024-01-15T01:12:35;3.30;;;3.00;;
66741;SDS011;53654;54.152;19.432;2024-01-15T01:15:03;3.80;;;3.30;;
66741;SDS011;53654;54.152;19.432;2024-01-15T01:17:32;4.30;;;3.70;;
66741;SDS011;53654;54.152;19.432;2024-01-15T01:20:01;4.20;;;3.80;;
66741;SDS011;53654;54.152;19.432;2024-01-15T01:22:32;5.50;;;3.90;;
66741;SDS011;53654;54.152;19.432;2024-01-15T01:25:00;4.50;;;4.00;;
66741;SDS011;53654;54.152;19.432;2024-01-15T01:27:28;4.80;;;3.90;;
66741;SDS011;53654;54.152;19.432;2024-01-15T01:29:57;5.90;;;4.10;;
66741;SDS011;53654;54.152;19.432;2024-01-15T01:32:25;4.40;;;3.60;;
66741;SDS011;53654;54.152;19.432;2024-01-15T01:34:53;4.50;;;3.90;;
66741;SDS011;53654;54.152;19.432;2024-01-15T01:37:22;4.60;;;3.80;;
66741;SDS011;53654;54.152;19.432;2024-01-15T01:39:50;5.40;;;3.70;;
66741;SDS011;53654;54.152;19.432;2024-01-15T01:42:18;4.30;;;3.80;;
66741;SDS011;53654;54.152;19.432;2024-01-15T01:44:46;5.10;;;3.80;;
66741;SDS011;53654;54.152;19.432;2024-01-15T01:47:14;4.40;;;3.50;;
66741;SDS011;53654;54.152;19.432;2024-01-15T01:49:42;4.10;;;3.70;;
66741;SDS011;53654;54.152;19.432;2024-01-15T01:52:11;5.10;;;3.50;;
66741;SDS011;53654;54.152;19.432;2024-01-15T01:54:39;3.70;;;3.40;;
66741;SDS011;53654;54.152;19.432;2024-01-15T01:57:08;3.80;;;3.40;;
66741;SDS011;53654;54.152;19.432;2024-01-15T01:59:36;3.90;;;3.50;;
66741;SDS011;53654;54.152;19.432;2024-01-15T02:02:06;3.90;;;3.40;;
66741;SDS011;53654;54.152;19.432;2024-01-15T02:04:34;3.60;;;3.30;;
66741;SDS011;53654;54.152;19.432;2024-01-15T02:07:04;3.80;;;3.40;;
66741;SDS011;53654;54.152;19.432;2024-01-15T02:09:32;4.40;;;3.60;;
66741;SDS011;53654;54.152;19.432;2024-01-15T02:12:01;3.50;;;3.20;;
66741;SDS011;53654;54.152;19.432;2024-01-15T02:14:29;3.90;;;3.40;;
66741;SDS011;53654;54.152;19.432;2024-01-15T02:16:57;3.90;;;3.50;;
66741;SDS011;53654;54.152;19.432;2024-01-15T02:19:25;3.90;;;3.50;;
66741;SDS011;53654;54.152;19.432;2024-01-15T02:21:54;4.70;;;3.80;;
66741;SDS011;53654;54.152;19.432;2024-01-15T02:24:22;4.50;;;4.00;;
66741;SDS011;53654;54.152;19.432;2024-01-15T02:26:51;4.70;;;4.20;;
66741;SDS011;53654;54.152;19.432;2024-01-15T02:29:19;4.40;;;4.00;;
66741;SDS011;53654;54.152;19.432;2024-01-15T02:31:48;4.70;;;4.30;;
66741;SDS011;53654;54.152;19.432;2024-01-15T02:34:16;4.40;;;4.10;;
66741;SDS011;53654;54.152;19.432;2024-01-15T02:36:44;4.50;;;4.10;;
66741;SDS011;53654;54.152;19.432;2024-01-15T02:39:13;4.90;;;4.50;;
66741;SDS011;53654;54.152;19.432;2024-01-15T02:41:41;4.60;;;4.30;;
66741;SDS011;53654;54.152;19.432;2024-01-15T02:44:09;4.70;;;4.40;;
66741;SDS011;53654;54.152;19.432;2024-01-15T02:46:37;4.70;;;4.30;;
66741;SDS011;53654;54.152;19.432;2024-01-15T02:49:05;4.90;;;4.50;;
66741;SDS011;53654;54.152;19.432;2024-01-15T02:51:33;5.00;;;4.60;;
66741;SDS011;53654;54.152;19.432;2024-01-15T02:54:02;4.80;;;4.40;;
66741;SDS011;53654;54.152;19.432;2024-01-15T02:56:30;5.30;;;4.90;;
66741;SDS011;53654;54.152;19.432;2024-01-15T02:58:58;4.90;;;4.50;;
66741;SDS011;53654;54.152;19.432;2024-01-15T03:01:27;5.50;;;5.00;;
66741;SDS011;53654;54.152;19.432;2024-01-15T03:03:55;5.10;;;4.70;;
66741;SDS011;53654;54.152;19.432;2024-01-15T03:06:25;5.20;;;4.80;;
66741;SDS011;53654;54.152;19.432;2024-01-15T03:08:53;4.90;;;4.60;;
66741;SDS011;53654;54.152;19.432;2024-01-15T03:11:21;5.00;;;4.60;;
66741;SDS011;53654;54.152;19.432;2024-01-15T03:13:49;5.20;;;4.80;;
66741;SDS011;53654;54.152;19.432;2024-01-15T03:16:17;5.40;;;5.00;;
66741;SDS011;53654;54.152;19.432;2024-01-15T03:18:47;5.60;;;5.10;;
66741;SDS011;53654;54.152;19.432;2024-01-15T03:21:15;5.50;;;5.10;;
66741;SDS011;53654;54.152;19.432;2024-01-15T03:23:43;5.40;;;5.00;;
66741;SDS011;53654;54.152;19.432;2024-01-15T03:26:11;5.60;;;5.20;;
66741;SDS011;53654;54.152;19.432;2024-01-15T03:28:40;5.40;;;5.00;;
66741;SDS011;53654;54.152;19.432;2024-01-15T03:31:08;5.70;;;5.30;;
66741;SDS011;53654;54.152;19.432;2024-01-15T03:33:36;6.00;;;5.50;;
66741;SDS011;53654;54.152;19.432;2024-01-15T03:36:05;6.00;;;5.50;;
66741;SDS011;53654;54.152;19.432;2024-01-15T03:38:33;6.00;;;5.60;;
66741;SDS011;53654;54.152;19.432;2024-01-15T03:41:01;6.20;;;5.80;;
66741;SDS011;53654;54.152;19.432;2024-01-15T03:43:29;6.20;;;5.70;;
66741;SDS011;53654;54.152;19.432;2024-01-15T03:45:57;6.40;;;5.90;;
66741;SDS011;53654;54.152;19.432;2024-01-15T03:48:25;6.50;;;6.00;;
66741;SDS011;53654;54.152;19.432;2024-01-15T03:50:54;6.50;;;6.00;;
66741;SDS011;53654;54.152;19.432;2024-01-15T03:53:22;6.80;;;6.30;;
66741;SDS011;53654;54.152;19.432;2024-01-15T03:55:50;6.40;;;6.00;;
66741;SDS011;53654;54.152;19.432;2024-01-15T03:58:18;6.70;;;6.20;;
66741;SDS011;53654;54.152;19.432;2024-01-15T04:00:46;6.70;;;6.20;;
66741;SDS011;53654;54.152;19.432;2024-01-15T04:03:14;6.80;;;6.30;;
66741;SDS011;53654;54.152;19.432;2024-01-15T04:05:43;6.30;;;5.90;;
66741;SDS011;53654;54.152;19.432;2024-01-15T04:08:11;6.20;;;5.80;;
66741;SDS011;53654;54.152;19.432;2024-01-15T04:10:39;6.40;;;6.00;;
66741;SDS011;53654;54.152;19.432;2024-01-15T04:13:07;6.40;;;6.00;;
66741;SDS011;53654;54.152;19.432;2024-01-15T04:15:35;6.50;;;6.00;;
66741;SDS011;53654;54.152;19.432;2024-01-15T04:18:04;6.40;;;6.00;;
66741;SDS011;53654;54.152;19.432;2024-01-15T04:20:32;6.70;;;6.30;;
66741;SDS011;53654;54.152;19.432;2024-01-15T04:23:00;6.50;;;6.10;;
66741;SDS011;53654;54.152;19.432;2024-01-15T04:25:28;6.20;;;5.80;;
66741;SDS011;53654;54.152;19.432;2024-01-15T04:27:56;6.70;;;6.20;;
66741;SDS011;53654;54.152;19.432;2024-01-15T04:30:25;6.50;;;6.00;;
66741;SDS011;53654;54.152;19.432;2024-01-15T04:32:53;6.10;;;5.70;;
66741;SDS011;53654;54.152;19.432;2024-01-15T04:35:21;6.50;;;6.10;;
66741;SDS011;53654;54.152;19.432;2024-01-15T04:37:50;6.60;;;6.10;;
66741;SDS011;53654;54.152;19.432;2024-01-15T04:40:18;6.70;;;6.20;;
66741;SDS011;53654;54.152;19.432;2024-01-15T04:42:46;6.30;;;5.90;;
66741;SDS011;53654;54.152;19.432;2024-01-15T04:45:14;6.40;;;5.90;;
66741;SDS011;53654;54.152;19.432;2024-01-15T04:47:42;6.50;;;6.10;;
66741;SDS011;53654;54.152;19.432;2024-01-15T04:50:11;6.60;;;6.10;;
66741;SDS011;53654;54.152;19.432;2024-01-15T04:52:39;6.40;;;6.00;;
66741;SDS011;53654;54.152;19.432;2024-01-15T04:55:07;6.50;;;6.00;;
66741;SDS011;53654;54.152;19.432;2024-01-15T04:57:35;6.60;;;6.10;;
66741;SDS011;53654;54.152;19.432;2024-01-15T05:00:04;6.70;;;6.30;;
66741;SDS011;53654;54.152;19.432;2024-01-15T05:02:33;6.90;;;6.40;;
66741;SDS011;53654;54.152;19.432;2024-01-15T05:05:01;7.00;;;6.50;;
66741;SDS011;53654;54.152;19.432;2024-01-15T05:07:29;7.30;;;6.80;;
66741;SDS011;53654;54.152;19.432;2024-01-15T05:09:57;7.80;;;7.20;;
66741;SDS011;53654;54.152;19.432;2024-01-15T05:12:26;7.30;;;6.80;;
66741;SDS011;53654;54.152;19.432;2024-01-15T05:14:54;7.90;;;7.40;;
66741;SDS011;53654;54.152;19.432;2024-01-15T05:17:22;8.20;;;7.60;;
66741;SDS011;53654;54.152;19.432;2024-01-15T05:19:50;8.80;;;8.20;;
66741;SDS011;53654;54.152;19.432;2024-01-15T05:22:19;8.70;;;8.00;;
66741;SDS011;53654;54.152;19.432;2024-01-15T05:24:47;8.90;;;8.30;;
66741;SDS011;53654;54.152;19.432;2024-01-15T05:27:15;8.50;;;7.90;;
66741;SDS011;53654;54.152;19.432;2024-01-15T05:29:44;8.40;;;7.80;;
66741;SDS011;53654;54.152;19.432;2024-01-15T05:32:12;8.40;;;7.80;;
66741;SDS011;53654;54.152;19.432;2024-01-15T05:34:40;8.20;;;7.60;;
66741;SDS011;53654;54.152;19.432;2024-01-15T05:37:08;8.10;;;7.60;;
66741;SDS011;53654;54.152;19.432;2024-01-15T05:39:36;8.10;;;7.60;;
66741;SDS011;53654;54.152;19.432;2024-01-15T05:42:04;7.80;;;7.30;;
66741;SDS011;53654;54.152;19.432;2024-01-15T05:44:32;7.80;;;7.30;;
66741;SDS011;53654;54.152;19.432;2024-01-15T05:47:00;7.70;;;7.10;;
66741;SDS011;53654;54.152;19.432;2024-01-15T05:49:28;7.90;;;7.30;;
66741;SDS011;53654;54.152;19.432;2024-01-15T05:51:57;7.80;;;7.20;;
66741;SDS011;53654;54.152;19.432;2024-01-15T05:54:25;7.30;;;6.80;;
66741;SDS011;53654;54.152;19.432;2024-01-15T05:56:53;8.20;;;7.60;;
66741;SDS011;53654;54.152;19.432;2024-01-15T05:59:21;7.90;;;7.30;;
66741;SDS011;53654;54.152;19.432;2024-01-15T06:01:50;8.20;;;7.60;;
66741;SDS011;53654;54.152;19.432;2024-01-15T06:04:18;7.70;;;7.10;;
66741;SDS011;53654;54.152;19.432;2024-01-15T06:06:46;7.30;;;6.80;;
66741;SDS011;53654;54.152;19.432;2024-01-15T06:09:14;7.00;;;6.50;;
66741;SDS011;53654;54.152;19.432;2024-01-15T06:11:43;7.20;;;6.70;;
66741;SDS011;53654;54.152;19.432;2024-01-15T06:14:11;6.90;;;6.40;;
66741;SDS011;53654;54.152;19.432;2024-01-15T06:16:39;7.20;;;6.70;;
66741;SDS011;53654;54.152;19.432;2024-01-15T06:19:07;7.10;;;6.60;;
66741;SDS011;53654;54.152;19.432;2024-01-15T06:21:36;7.40;;;6.80;;
66741;SDS011;53654;54.152;19.432;2024-01-15T06:24:04;6.50;;;6.00;;
66741;SDS011;53654;54.152;19.432;2024-01-15T06:26:33;6.60;;;6.10;;
66741;SDS011;53654;54.152;19.432;2024-01-15T06:29:01;6.20;;;5.80;;
66741;SDS011;53654;54.152;19.432;2024-01-15T06:31:30;6.40;;;5.90;;
66741;SDS011;53654;54.152;19.432;2024-01-15T06:33:59;6.40;;;6.00;;
66741;SDS011;53654;54.152;19.432;2024-01-15T06:36:27;5.90;;;5.50;;
66741;SDS011;53654;54.152;19.432;2024-01-15T06:38:55;6.20;;;5.70;;
66741;SDS011;53654;54.152;19.432;2024-01-15T06:41:23;5.70;;;5.30;;
66741;SDS011;53654;54.152;19.432;2024-01-15T06:43:53;4.70;;;4.40;;
66741;SDS011;53654;54.152;19.432;2024-01-15T06:46:24;5.20;;;4.80;;
66741;SDS011;53654;54.152;19.432;2024-01-15T06:48:52;4.70;;;4.40;;
66741;SDS011;53654;54.152;19.432;2024-01-15T06:51:20;5.00;;;4.60;;
66741;SDS011;53654;54.152;19.432;2024-01-15T06:53:48;4.40;;;4.10;;
66741;SDS011;53654;54.152;19.432;2024-01-15T06:56:16;4.80;;;4.40;;
66741;SDS011;53654;54.152;19.432;2024-01-15T06:58:44;4.80;;;4.40;;
66741;SDS011;53654;54.152;19.432;2024-01-15T07:01:13;3.90;;;3.50;;
66741;SDS011;53654;54.152;19.432;2024-01-15T07:03:41;4.00;;;3.60;;
66741;SDS011;53654;54.152;19.432;2024-01-15T07:06:09;3.80;;;3.40;;
66741;SDS011;53654;54.152;19.432;2024-01-15T07:08:39;3.70;;;3.30;;
66741;SDS011;53654;54.152;19.432;2024-01-15T07:11:07;4.50;;;3.60;;
66741;SDS011;53654;54.152;19.432;2024-01-15T07:13:36;3.80;;;3.40;;
66741;SDS011;53654;54.152;19.432;2024-01-15T07:16:05;3.80;;;3.30;;
66741;SDS011;53654;54.152;19.432;2024-01-15T07:18:33;4.20;;;3.20;;
66741;SDS011;53654;54.152;19.432;2024-01-15T07:21:01;3.90;;;3.10;;
66741;SDS011;53654;54.152;19.432;2024-01-15T07:23:33;4.40;;;3.00;;
66741;SDS011;53654;54.152;19.432;2024-01-15T07:26:01;3.80;;;3.10;;
66741;SDS011;53654;54.152;19.432;2024-01-15T07:28:29;4.50;;;3.30;;
66741;SDS011;53654;54.152;19.432;2024-01-15T07:30:57;5.20;;;2.90;;
66741;SDS011;53654;54.152;19.432;2024-01-15T07:33:26;4.00;;;3.20;;
66741;SDS011;53654;54.152;19.432;2024-01-15T07:35:54;6.20;;;3.50;;
66741;SDS011;53654;54.152;19.432;2024-01-15T07:38:22;5.60;;;3.00;;
66741;SDS011;53654;54.152;19.432;2024-01-15T07:40:50;5.40;;;2.80;;
66741;SDS011;53654;54.152;19.432;2024-01-15T07:43:18;3.80;;;2.40;;
66741;SDS011;53654;54.152;19.432;2024-01-15T07:45:46;4.20;;;2.40;;
66741;SDS011;53654;54.152;19.432;2024-01-15T07:48:15;4.10;;;2.50;;
66741;SDS011;53654;54.152;19.432;2024-01-15T07:50:43;4.70;;;2.90;;
66741;SDS011;53654;54.152;19.432;2024-01-15T07:53:11;5.10;;;3.20;;
66741;SDS011;53654;54.152;19.432;2024-01-15T07:55:39;5.50;;;2.70;;
66741;SDS011;53654;54.152;19.432;2024-01-15T07:58:07;4.00;;;2.60;;
66741;SDS011;53654;54.152;19.432;2024-01-15T08:00:43;5.20;;;3.00;;
66741;SDS011;53654;54.152;19.432;2024-01-15T08:03:12;4.60;;;2.60;;
66741;SDS011;53654;54.152;19.432;2024-01-15T08:05:41;4.40;;;2.70;;
66741;SDS011;53654;54.152;19.432;2024-01-15T08:08:09;5.80;;;2.80;;
66741;SDS011;53654;54.152;19.432;2024-01-15T08:10:37;4.10;;;2.70;;
66741;SDS011;53654;54.152;19.432;2024-01-15T08:13:05;5.40;;;2.90;;
66741;SDS011;53654;54.152;19.432;2024-01-15T08:15:35;5.20;;;3.10;;
66741;SDS011;53654;54.152;19.432;2024-01-15T08:18:04;5.30;;;2.90;;
66741;SDS011;53654;54.152;19.432;2024-01-15T08:20:32;4.90;;;2.80;;
66741;SDS011;53654;54.152;19.432;2024-01-15T08:23:01;5.70;;;3.10;;
66741;SDS011;53654;54.152;19.432;2024-01-15T08:25:29;4.80;;;2.90;;
66741;SDS011;53654;54.152;19.432;2024-01-15T08:27:57;4.90;;;3.20;;
66741;SDS011;53654;54.152;19.432;2024-01-15T08:30:26;4.90;;;2.90;;
66741;SDS011;53654;54.152;19.432;2024-01-15T08:32:56;3.80;;;2.90;;
66741;SDS011;53654;54.152;19.432;2024-01-15T08:35:34;5.20;;;3.70;;
66741;SDS011;53654;54.152;19.432;2024-01-15T08:38:03;6.20;;;3.30;;
66741;SDS011;53654;54.152;19.432;2024-01-15T08:40:31;6.40;;;3.20;;
66741;SDS011;53654;54.152;19.432;2024-01-15T08:42:59;4.70;;;3.50;;
66741;SDS011;53654;54.152;19.432;2024-01-15T08:45:27;6.20;;;3.70;;
66741;SDS011;53654;54.152;19.432;2024-01-15T08:47:58;6.70;;;3.80;;
66741;SDS011;53654;54.152;19.432;2024-01-15T08:50:27;6.20;;;3.80;;
66741;SDS011;53654;54.152;19.432;2024-01-15T08:52:55;5.60;;;3.90;;
66741;SDS011;53654;54.152;19.432;2024-01-15T08:55:23;7.80;;;4.30;;
66741;SDS011;53654;54.152;19.432;2024-01-15T08:57:51;5.60;;;3.70;;
66741;SDS011;53654;54.152;19.432;2024-01-15T09:00:20;4.60;;;3.70;;
66741;SDS011;53654;54.152;19.432;2024-01-15T09:02:48;5.60;;;3.70;;
66741;SDS011;53654;54.152;19.432;2024-01-15T09:05:16;6.10;;;3.30;;
66741;SDS011;53654;54.152;19.432;2024-01-15T09:07:45;6.00;;;3.80;;
66741;SDS011;53654;54.152;19.432;2024-01-15T09:10:14;5.50;;;3.70;;
66741;SDS011;53654;54.152;19.432;2024-01-15T09:12:42;5.10;;;3.70;;
66741;SDS011;53654;54.152;19.432;2024-01-15T09:15:10;4.80;;;3.70;;
66741;SDS011;53654;54.152;19.432;2024-01-15T09:17:39;5.60;;;4.20;;
66741;SDS011;53654;54.152;19.432;2024-01-15T09:20:07;5.50;;;3.70;;
66741;SDS011;53654;54.152;19.432;2024-01-15T09:22:39;6.90;;;3.50;;
66741;SDS011;53654;54.152;19.432;2024-01-15T09:25:09;4.30;;;3.50;;
66741;SDS011;53654;54.152;19.432;2024-01-15T09:27:38;4.90;;;3.00;;
66741;SDS011;53654;54.152;19.432;2024-01-15T09:30:06;4.90;;;3.60;;
66741;SDS011;53654;54.152;19.432;2024-01-15T09:32:36;4.00;;;3.10;;
66741;SDS011;53654;54.152;19.432;2024-01-15T09:35:04;4.60;;;3.50;;
66741;SDS011;53654;54.152;19.432;2024-01-15T09:37:34;5.10;;;3.40;;
66741;SDS011;53654;54.152;19.432;2024-01-15T09:40:14;5.60;;;3.50;;
66741;SDS011;53654;54.152;19.432;2024-01-15T09:42:44;5.70;;;3.60;;
66741;SDS011;53654;54.152;19.432;2024-01-15T09:45:13;4.70;;;3.40;;
66741;SDS011;53654;54.152;19.432;2024-01-15T09:47:42;4.30;;;3.20;;
66741;SDS011;53654;54.152;19.432;2024-01-15T09:50:13;4.10;;;3.60;;
66741;SDS011;53654;54.152;19.432;2024-01-15T09:52:43;4.40;;;3.40;;
66741;SDS011;53654;54.152;19.432;2024-01-15T09:55:13;4.60;;;3.60;;
66741;SDS011;53654;54.152;19.432;2024-01-15T09:57:44;5.30;;;3.50;;
66741;SDS011;53654;54.152;19.432;2024-01-15T10:00:14;5.10;;;3.70;;
66741;SDS011;53654;54.152;19.432;2024-01-15T10:02:45;4.60;;;3.00;;
66741;SDS011;53654;54.152;19.432;2024-01-15T10:05:13;4.60;;;3.20;;
66741;SDS011;53654;54.152;19.432;2024-01-15T10:07:42;12.00;;;11.00;;
66741;SDS011;53654;54.152;19.432;2024-01-15T10:10:11;5.00;;;3.10;;
66741;SDS011;53654;54.152;19.432;2024-01-15T10:12:39;3.90;;;2.90;;
66741;SDS011;53654;54.152;19.432;2024-01-15T10:15:11;3.60;;;2.60;;
66741;SDS011;53654;54.152;19.432;2024-01-15T10:17:40;4.30;;;2.80;;
66741;SDS011;53654;54.152;19.432;2024-01-15T10:20:09;3.60;;;2.70;;
66741;SDS011;53654;54.152;19.432;2024-01-15T10:22:40;4.40;;;2.80;;
66741;SDS011;53654;54.152;19.432;2024-01-15T10:25:10;4.60;;;2.80;;
66741;SDS011;53654;54.152;19.432;2024-01-15T10:27:43;4.70;;;2.80;;
66741;SDS011;53654;54.152;19.432;2024-01-15T10:30:11;3.00;;;2.30;;
66741;SDS011;53654;54.152;19.432;2024-01-15T10:32:42;4.80;;;2.60;;
66741;SDS011;53654;54.152;19.432;2024-01-15T10:35:26;4.60;;;3.00;;
66741;SDS011;53654;54.152;19.432;2024-01-15T10:37:55;5.00;;;3.70;;
66741;SDS011;53654;54.152;19.432;2024-01-15T10:40:23;3.60;;;2.90;;
66741;SDS011;53654;54.152;19.432;2024-01-15T10:42:51;6.60;;;4.20;;
66741;SDS011;53654;54.152;19.432;2024-01-15T10:45:20;7.20;;;4.50;;
66741;SDS011;53654;54.152;19.432;2024-01-15T10:47:48;7.00;;;4.10;;
66741;SDS011;53654;54.152;19.432;2024-01-15T10:50:16;7.30;;;4.70;;
66741;SDS011;53654;54.152;19.432;2024-01-15T10:52:45;8.10;;;5.10;;
66741;SDS011;53654;54.152;19.432;2024-01-15T10:55:13;7.10;;;4.60;;
66741;SDS011;53654;54.152;19.432;2024-01-15T10:57:46;6.80;;;4.20;;
66741;SDS011;53654;54.152;19.432;2024-01-15T11:00:17;5.90;;;3.00;;
66741;SDS011;53654;54.152;19.432;2024-01-15T11:02:47;5.70;;;3.00;;
66741;SDS011;53654;54.152;19.432;2024-01-15T11:05:15;5.20;;;2.60;;
66741;SDS011;53654;54.152;19.432;2024-01-15T11:07:46;4.40;;;2.50;;
66741;SDS011;53654;54.152;19.432;2024-01-15T11:18:28;5.60;;;2.80;;
66741;SDS011;53654;54.152;19.432;2024-01-15T11:28:55;4.80;;;2.50;;
66741;SDS011;53654;54.152;19.432;2024-01-15T11:31:27;3.80;;;2.50;;
66741;SDS011;53654;54.152;19.432;2024-01-15T11:33:57;3.50;;;2.30;;
66741;SDS011;53654;54.152;19.432;2024-01-15T11:41:56;4.90;;;2.50;;
66741;SDS011;53654;54.152;19.432;2024-01-15T11:44:25;3.70;;;2.50;;
66741;SDS011;53654;54.152;19.432;2024-01-15T11:47:00;5.30;;;2.90;;
66741;SDS011;53654;54.152;19.432;2024-01-15T11:52:16;4.20;;;2.60;;
66741;SDS011;53654;54.152;19.432;2024-01-15T11:54:49;3.60;;;2.90;;
66741;SDS011;53654;54.152;19.432;2024-01-15T11:58:13;4.40;;;3.40;;
66741;SDS011;53654;54.152;19.432;2024-01-15T12:00:20;4.60;;;3.00;;
66741;SDS011;53654;54.152;19.432;2024-01-15T12:02:49;4.40;;;3.60;;
66741;SDS011;53654;54.152;19.432;2024-01-15T12:05:21;4.60;;;3.80;;
66741;SDS011;53654;54.152;19.432;2024-01-15T12:07:49;5.10;;;3.60;;
66741;SDS011;53654;54.152;19.432;2024-01-15T12:10:18;3.60;;;3.10;;
66741;SDS011;53654;54.152;19.432;2024-01-15T12:15:37;3.90;;;3.10;;
66741;SDS011;53654;54.152;19.432;2024-01-15T12:18:09;3.90;;;3.00;;
66741;SDS011;53654;54.152;19.432;2024-01-15T12:20:42;4.80;;;3.20;;
66741;SDS011;53654;54.152;19.432;2024-01-15T12:23:11;3.80;;;2.70;;
66741;SDS011;53654;54.152;19.432;2024-01-15T12:25:41;4.30;;;3.10;;
66741;SDS011;53654;54.152;19.432;2024-01-15T12:28:09;4.20;;;3.30;;
66741;SDS011;53654;54.152;19.432;2024-01-15T12:30:38;3.40;;;2.70;;
66741;SDS011;53654;54.152;19.432;2024-01-15T12:33:07;4.60;;;2.90;;
66741;SDS011;53654;54.152;19.432;2024-01-15T12:35:37;4.30;;;3.60;;
66741;SDS011;53654;54.152;19.432;2024-01-15T12:38:05;4.60;;;3.50;;
66741;SDS011;53654;54.152;19.432;2024-01-15T12:40:33;4.30;;;3.30;;
66741;SDS011;53654;54.152;19.432;2024-01-15T12:43:07;3.60;;;3.10;;
66741;SDS011;53654;54.152;19.432;2024-01-15T12:45:36;3.90;;;2.40;;
66741;SDS011;53654;54.152;19.432;2024-01-15T12:48:05;3.50;;;2.00;;
66741;SDS011;53654;54.152;19.432;2024-01-15T12:50:34;3.60;;;2.20;;
66741;SDS011;53654;54.152;19.432;2024-01-15T12:53:03;3.10;;;2.10;;
66741;SDS011;53654;54.152;19.432;2024-01-15T12:55:32;3.70;;;2.10;;
66741;SDS011;53654;54.152;19.432;2024-01-15T12:58:21;2.90;;;1.90;;
66741;SDS011;53654;54.152;19.432;2024-01-15T13:00:48;3.10;;;2.10;;
66741;SDS011;53654;54.152;19.432;2024-01-15T13:03:17;3.10;;;2.30;;
66741;SDS011;53654;54.152;19.432;2024-01-15T13:05:46;2.50;;;2.20;;
66741;SDS011;53654;54.152;19.432;2024-01-15T13:08:15;3.10;;;2.20;;
66741;SDS011;53654;54.152;19.432;2024-01-15T13:10:43;2.90;;;2.20;;
66741;SDS011;53654;54.152;19.432;2024-01-15T13:13:11;2.80;;;2.20;;
66741;SDS011;53654;54.152;19.432;2024-01-15T13:15:40;3.10;;;2.30;;
66741;SDS011;53654;54.152;19.432;2024-01-15T13:18:08;3.20;;;2.10;;
66741;SDS011;53654;54.152;19.432;2024-01-15T13:20:37;2.80;;;2.40;;
66741;SDS011;53654;54.152;19.432;2024-01-15T13:23:06;4.40;;;2.60;;
66741;SDS011;53654;54.152;19.432;2024-01-15T13:25:34;3.50;;;2.30;;
66741;SDS011;53654;54.152;19.432;2024-01-15T13:28:04;3.90;;;2.80;;
66741;SDS011;53654;54.152;19.432;2024-01-15T13:30:33;2.40;;;2.20;;
66741;SDS011;53654;54.152;19.432;2024-01-15T13:33:01;3.00;;;2.40;;
66741;SDS011;53654;54.152;19.432;2024-01-15T13:35:32;3.20;;;2.30;;
66741;SDS011;53654;54.152;19.432;2024-01-15T13:38:01;3.00;;;2.10;;
66741;SDS011;53654;54.152;19.432;2024-01-15T13:40:29;3.10;;;2.40;;
66741;SDS011;53654;54.152;19.432;2024-01-15T13:42:57;3.70;;;3.20;;
66741;SDS011;53654;54.152;19.432;2024-01-15T13:45:25;2.80;;;2.40;;
66741;SDS011;53654;54.152;19.432;2024-01-15T13:47:53;3.40;;;2.60;;
66741;SDS011;53654;54.152;19.432;2024-01-15T13:50:22;2.80;;;2.40;;
66741;SDS011;53654;54.152;19.432;2024-01-15T13:52:52;3.10;;;2.30;;
66741;SDS011;53654;54.152;19.432;2024-01-15T13:55:20;3.10;;;2.20;;
66741;SDS011;53654;54.152;19.432;2024-01-15T13:57:48;2.40;;;2.20;;
66741;SDS011;53654;54.152;19.432;2024-01-15T14:00:17;3.70;;;3.10;;
66741;SDS011;53654;54.152;19.432;2024-01-15T14:02:48;2.20;;;2.00;;
66741;SDS011;53654;54.152;19.432;2024-01-15T14:05:16;3.30;;;2.70;;
66741;SDS011;53654;54.152;19.432;2024-01-15T14:07:44;4.60;;;3.00;;
66741;SDS011;53654;54.152;19.432;2024-01-15T14:10:13;4.40;;;3.30;;
66741;SDS011;53654;54.152;19.432;2024-01-15T14:12:41;3.20;;;2.80;;
66741;SDS011;53654;54.152;19.432;2024-01-15T14:15:09;2.60;;;2.40;;
66741;SDS011;53654;54.152;19.432;2024-01-15T14:17:37;3.40;;;2.80;;
66741;SDS011;53654;54.152;19.432;2024-01-15T14:20:06;3.80;;;2.60;;
66741;SDS011;53654;54.152;19.432;2024-01-15T14:22:37;3.40;;;2.70;;
66741;SDS011;53654;54.152;19.432;2024-01-15T14:25:07;3.70;;;2.80;;
66741;SDS011;53654;54.152;19.432;2024-01-15T14:27:35;3.70;;;2.70;;
66741;SDS011;53654;54.152;19.432;2024-01-15T14:30:04;4.10;;;3.00;;
66741;SDS011;53654;54.152;19.432;2024-01-15T14:32:34;4.50;;;3.60;;
66741;SDS011;53654;54.152;19.432;2024-01-15T14:35:02;4.90;;;3.20;;
66741;SDS011;53654;54.152;19.432;2024-01-15T14:37:32;4.20;;;3.30;;
66741;SDS011;53654;54.152;19.432;2024-01-15T14:40:00;4.60;;;3.10;;
66741;SDS011;53654;54.152;19.432;2024-01-15T14:42:28;3.70;;;2.40;;
66741;SDS011;53654;54.152;19.432;2024-01-15T14:44:56;4.10;;;2.90;;
66741;SDS011;53654;54.152;19.432;2024-01-15T14:47:25;3.30;;;2.60;;
66741;SDS011;53654;54.152;19.432;2024-01-15T14:49:54;2.70;;;2.30;;
66741;SDS011;53654;54.152;19.432;2024-01-15T14:52:25;3.80;;;2.70;;
66741;SDS011;53654;54.152;19.432;2024-01-15T14:54:53;4.40;;;3.10;;
66741;SDS011;53654;54.152;19.432;2024-01-15T14:57:21;3.60;;;3.00;;
66741;SDS011;53654;54.152;19.432;2024-01-15T14:59:50;3.30;;;3.00;;
66741;SDS011;53654;54.152;19.432;2024-01-15T15:02:18;4.00;;;3.20;;
66741;SDS011;53654;54.152;19.432;2024-01-15T15:04:47;5.50;;;4.10;;
66741;SDS011;53654;54.152;19.432;2024-01-15T15:07:17;4.10;;;3.40;;
66741;SDS011;53654;54.152;19.432;2024-01-15T15:09:45;3.80;;;3.40;;